Condiciones actuales en los principales Aeropuertos de España-Datos Metar

 

LEAL - Alicante
Actualización: 24/05/2017 05:30
Despejado
Despejado
 Viento del ONO
Viento: ONO 6 km/h
Temperatura: 16°C
Rocío: 12°C
Humedad: 77%
Barómetro: 1020 hPa
Resumen: Despejado
Visibilidad: greater than 10 km
2017/05/24 03:30 LEAL 240330Z 30003KT CAVOK 16/12 Q1020 NOSIG
LEAB - Albacete
Actualización: 24/05/2017 05:00
Despejado
Despejado
 Viento del SE
Viento: SE 13 km/h
Temperatura: 12°C
Rocío: 4°C
Humedad: 58%
Barómetro: 1022 hPa
Resumen: Despejado
Visibilidad: greater than 10 km
2017/05/24 03:00 LEAB 240300Z 13007KT CAVOK 12/04 Q1022 NOSIG
LEAM - Almería
Actualización: 24/05/2017 05:30
Despejado
Despejado
 Viento del NNO
Viento: NNO 17 km/h
Temperatura: 21°C
Rocío: 5°C
Humedad: 35%
Barómetro: 1017 hPa
Resumen: Despejado
Visibilidad: greater than 10 km
2017/05/24 03:30 LEAM 240330Z 33009KT CAVOK 21/05 Q1017
 
LEAS - Asturias/Aviles
Actualización: 24/05/2017 05:30

 Viento del ESE
Viento: ESE 13 km/h
Visibilidad: 8 km
2017/05/24 03:30 LEAS 240330Z AUTO 12007KT 070V150 8000 3900 BKN008/// OVC012/// 14/13 Q1021
LEBZ - Badajoz/Talavera la Real
Actualización: 23/05/2017 21:00
NO Actualizado
Despejado
Despejado
 Viento del NNE
Viento: NNE 6 km/h
Temperatura: 32°C
Rocío: 10°C
Humedad: 26%
Barómetro: 1012 hPa
Resumen: Despejado
Visibilidad: greater than 10 km
2017/05/23 19:00 LEBZ 231900Z 03003KT CAVOK 32/10 Q1012
LEBL - Barcelona
Actualización: 24/05/2017 05:30
Despejado
Despejado
 Viento del NO
Viento: NO 17 km/h
Temperatura: 19°C
Rocío: 13°C
Humedad: 68%
Barómetro: 1019 hPa
Resumen: Despejado
Visibilidad: greater than 10 km
2017/05/24 03:30 LEBL 240330Z 32009KT CAVOK 19/13 Q1019 NOSIG
 
LEBB - Bilbao
Actualización: 24/05/2017 05:30
Mostly Cloudy
Mostly Cloudy
 Viento del varies
Viento: varies 2 km/h
Temperatura: 16°C
Rocío: 14°C
Humedad: 88%
Barómetro: 1022 hPa
Nubosidad: Mostly Cloudy
Visibilidad: 10 km
Cloud details: Mostly Cloudy 549 m
2017/05/24 03:30 LEBB 240330Z VRB01KT 9999 BKN018 16/14 Q1022 TEMPO BKN012
LEBG - Burgos/Villafría
Actualización: 24/05/2017 05:30
Despejado
Despejado
 Viento del varies
Viento: varies 4 km/h
Temperatura: 8°C
Rocío: 6°C
Humedad: 87%
Barómetro: 1022 hPa
Nubosidad: Despejado
Visibilidad: 10 km
2017/05/24 03:30 LEBG 240330Z AUTO VRB02KT 9999 NCD 08/06 Q1022
LEBA - Córdoba
Actualización: 24/05/2017 05:30
Despejado
Despejado
 Viento del calm
Viento: Calma
Temperatura: 17°C
Rocío: 12°C
Humedad: 73%
Barómetro: 1016 hPa
Nubosidad: Despejado
Visibilidad: 10 km
2017/05/24 03:30 LEBA 240330Z AUTO 00000KT 9999 NCD 17/12 Q1016
 
LEGE - Gerona
Actualización: 24/05/2017 05:30
Despejado
Despejado
 Viento del calm
Viento: Calma
Temperatura: 14°C
Rocío: 12°C
Humedad: 88%
Barómetro: 1020 hPa
Resumen: Despejado
Visibilidad: greater than 10 km
2017/05/24 03:30 LEGE 240330Z 00000KT CAVOK 14/12 Q1020
LEGR - Granada
Actualización: 24/05/2017 05:30
Despejado
Despejado
 Viento del E
Viento: E 9 km/h
Temperatura: 17°C
Rocío: 9°C
Humedad: 59%
Barómetro: 1019 hPa
Nubosidad: Despejado
Visibilidad: 10 km
2017/05/24 03:30 LEGR 240330Z AUTO 09005KT 070V130 9999 NCD 17/09 Q1019
GCHI - Hierro
Actualización: 24/05/2017 05:30
Cubierto
Cubierto
 Viento del NNE
Viento: NNE 22 km/h
Temperatura: 21°C
Rocío: 15°C
Humedad: 69%
Barómetro: 1018 hPa
Nubosidad: Cubierto
Visibilidad: 10 km
Cloud details: Cubierto 1006 m
2017/05/24 03:30 GCHI 240330Z AUTO 03012KT 350V060 9999 OVC033/// 21/15 Q1018
 
LEIB - Ibiza
Actualización: 24/05/2017 05:30
Despejado
Despejado
 Viento del NNO
Viento: NNO 6 km/h
Temperatura: 15°C
Rocío: 8°C
Humedad: 63%
Barómetro: 1020 hPa
Resumen: Despejado
Visibilidad: greater than 10 km
2017/05/24 03:30 LEIB 240330Z 34003KT 320V020 CAVOK 15/08 Q1020 NOSIG
LEJR - Jerez de la Frontera
Actualización: 24/05/2017 06:00
Despejado
Despejado
 Viento del ENE
Viento: ENE 9 km/h
Temperatura: 19°C
Rocío: 6°C
Humedad: 43%
Barómetro: 1014 hPa
Resumen: Despejado
Visibilidad: greater than 10 km
2017/05/24 04:00 LEJR 240400Z 07005KT 030V090 CAVOK 19/06 Q1014
LECO - A Coruña
Actualización: 24/05/2017 05:30
Despejado
Despejado
 Viento del varies
Viento: varies 2 km/h
Temperatura: 15°C
Rocío: 11°C
Humedad: 77%
Barómetro: 1016 hPa
Resumen: Despejado
Visibilidad: greater than 10 km
2017/05/24 03:30 LECO 240330Z VRB01KT CAVOK 15/11 Q1016 NOSIG
 
GCLA - La Palma
Actualización: 24/05/2017 05:30
Cubierto
Cubierto
 Viento del NNO
Viento: NNO 11 km/h
Temperatura: 20°C
Rocío: 11°C
Humedad: 56%
Barómetro: 1018 hPa
Nubosidad: Cubierto
Visibilidad: 10 km
Cloud details: Few Clouds 945 m
Cubierto 1219 m
2017/05/24 03:30 GCLA 240330Z AUTO 34006KT 310V010 9999 FEW031/// OVC040/// 20/11 Q1018
GCRR - Lanzarote
Actualización: 24/05/2017 02:00
NO Actualizado
Partly Cloudy
Partly Cloudy
 Viento del N
Viento: N 19 km/h
Temperatura: 21°C
Rocío: 15°C
Humedad: 69%
Barómetro: 1017 hPa
Nubosidad: Partly Cloudy
Visibilidad: 10 km
Cloud details: Few Clouds 762 m
Partly Cloudy 914 m
2017/05/24 00:00 GCRR 240000Z 36010KT 9999 FEW025 SCT030 21/15 Q1017
GCLP - Las Palmas
Actualización: 24/05/2017 05:30
Partly Cloudy
Partly Cloudy
 Viento del NNO
Viento: NNO 20 km/h
Temperatura: 21°C
Rocío: 13°C
Humedad: 60%
Barómetro: 1016 hPa
Nubosidad: Partly Cloudy
Visibilidad: 10 km
Cloud details: Few Clouds 914 m
Partly Cloudy 1067 m
2017/05/24 03:30 GCLP 240330Z 33011KT 300V360 9999 FEW030 SCT035 21/13 Q1016 NOSIG
 
LELN - León
Actualización: 23/05/2017 21:00
NO Actualizado
Despejado
Despejado
 Viento del ESE
Viento: ESE 13 km/h
Temperatura: 25°C
Rocío: 3°C
Humedad: 24%
Barómetro: 1021 hPa
Resumen: Despejado
Visibilidad: greater than 10 km
2017/05/23 19:00 LELN 231900Z 11007KT 080V140 CAVOK 25/03 Q1021
LELO - Logroño
Actualización: 23/05/2017 23:00
NO Actualizado
Despejado
Despejado
 Viento del SSE
Viento: SSE 6 km/h
Temperatura: 18°C
Rocío: 9°C
Humedad: 56%
Barómetro: 1021 hPa
Resumen: Despejado
Visibilidad: greater than 10 km
2017/05/23 21:00 LELO 232100Z 15003KT 110V170 CAVOK 18/09 Q1021
LECV - Madrid/Colmenar
Actualización: 23/05/2017 20:00
NO Actualizado
Few Clouds
Few Clouds
 Viento del ENE
Viento: ENE 9 km/h
Temperatura: 28°C
Rocío: 5°C
Humedad: 23%
Barómetro: 1020 hPa
Nubosidad: Few Clouds
Visibilidad: 10 km
Cloud details: Few Clouds 1524 m
2017/05/23 18:00 LECV 231800Z 06005KT 9999 FEW050 28/05 Q1020
 
LEMD - Madrid/Barajas
Actualización: 24/05/2017 05:30
Despejado
Despejado
 Viento del N
Viento: N 6 km/h
Temperatura: 17°C
Rocío: 7°C
Humedad: 52%
Barómetro: 1021 hPa
Resumen: Despejado
Visibilidad: greater than 10 km
2017/05/24 03:30 LEMD 240330Z 35003KT CAVOK 17/07 Q1021 NOSIG
LEVS - Madrid/Cuatro Vientos
Actualización: 23/05/2017 22:00
NO Actualizado
Despejado
Despejado
 Viento del E
Viento: E 7 km/h
Temperatura: 27°C
Rocío: 4°C
Humedad: 23%
Barómetro: 1018 hPa
Resumen: Despejado
Visibilidad: greater than 10 km
2017/05/23 20:00 LEVS 232000Z 09004KT 040V120 CAVOK 27/04 Q1018
LEGT - Madrid/Getafe
Actualización: 23/05/2017 21:00
NO Actualizado
Despejado
Despejado
 Viento del ESE
Viento: ESE 9 km/h
Temperatura: 28°C
Rocío: 7°C
Humedad: 26%
Barómetro: 1017 hPa
Resumen: Despejado
Visibilidad: greater than 10 km
2017/05/23 19:00 LEGT 231900Z 12005KT 090V170 CAVOK 28/07 Q1017
 
LETO - Madrid/Torrejón
Actualización: 24/05/2017 05:00
Despejado
Despejado
 Viento del NNE
Viento: NNE 6 km/h
Temperatura: 15°C
Rocío: 7°C
Humedad: 59%
Barómetro: 1021 hPa
Resumen: Despejado
Visibilidad: greater than 10 km
2017/05/24 03:00 LETO 240300Z 02003KT CAVOK 15/07 Q1021 NOSIG
LEMG - Málaga
Actualización: 24/05/2017 05:30
Few Clouds
Few Clouds
 Viento del ONO
Viento: ONO 9 km/h
Temperatura: 16°C
Rocío: 14°C
Humedad: 88%
Barómetro: 1017 hPa
Nubosidad: Few Clouds
Visibilidad: 10 km
Cloud details: Few Clouds 610 m
2017/05/24 03:30 LEMG 240330Z 30005KT 260V320 9999 FEW020 16/14 Q1017 NOSIG
GEML - Melilla
Actualización: 24/05/2017 05:30
Mist, Cubierto
Mist, Cubierto
 Viento del ENE
Viento: ENE 11 km/h
Temperatura: 19°C
Rocío: 18°C
Humedad: 94%
Barómetro: 1017 hPa
Resumen: Mist
Nubosidad: Cubierto
Visibilidad: 4 km
Cloud details: Mostly Cloudy 183 m
Cubierto 305 m
2017/05/24 03:30 GEML 240330Z AUTO 07006KT 030V100 4300 BR BKN006/// OVC010/// 19/18 Q1017
 
LEMH - Mahón
Actualización: 24/05/2017 05:30
Despejado
Despejado
 Viento del varies
Viento: varies 4 km/h
Temperatura: 16°C
Rocío: 13°C
Humedad: 83%
Barómetro: 1020 hPa
Nubosidad: Despejado
Visibilidad: 10 km
2017/05/24 03:30 LEMH 240330Z AUTO VRB02KT 9999 NCD 16/13 Q1020
LEMO - Morón de La Frontera
Actualización: 24/05/2017 05:00
Despejado
Despejado
 Viento del E
Viento: E 7 km/h
Temperatura: 17°C
Rocío: 9°C
Humedad: 59%
Barómetro: 1015 hPa
Resumen: Despejado
Visibilidad: greater than 10 km
2017/05/24 03:00 LEMO 240300Z 08004KT 040V110 CAVOK 17/09 Q1015 NOSIG
LERI - Murcia/Alcantarilla
Actualización: 23/05/2017 20:00
NO Actualizado
Despejado
Despejado
 Viento del NE
Viento: NE 22 km/h
Temperatura: 24°C
Rocío: 11°C
Humedad: 44%
Barómetro: 1018 hPa
Resumen: Despejado
Visibilidad: greater than 10 km
2017/05/23 18:00 LERI 231800Z 05012KT CAVOK 24/11 Q1018 NOSIG
 
LELC - Murcia/San Javier
Actualización: 23/05/2017 23:00
NO Actualizado
Few Clouds
Few Clouds
 Viento del NE
Viento: NE 13 km/h
Temperatura: 20°C
Rocío: 16°C
Humedad: 78%
Barómetro: 1020 hPa
Nubosidad: Few Clouds
Visibilidad: 10 km
Cloud details: Few Clouds 457 m
2017/05/23 21:00 LELC 232100Z 04007KT 9999 FEW015 20/16 Q1020 NOSIG
LEPA - Palma de Mallorca
Actualización: 24/05/2017 05:30
Despejado
Despejado
 Viento del ENE
Viento: ENE 2 km/h
Temperatura: 13°C
Rocío: 11°C
Humedad: 88%
Barómetro: 1020 hPa
Resumen: Despejado
Visibilidad: greater than 10 km
2017/05/24 03:30 LEPA 240330Z 06001KT CAVOK 13/11 Q1020 NOSIG
LEPP - Pamplona
Actualización: 24/05/2017 05:30
Despejado
Despejado
 Viento del calm
Viento: Calma
Temperatura: 11°C
Rocío: 10°C
Humedad: 94%
Barómetro: 1022 hPa
Resumen: Despejado
Visibilidad: greater than 10 km
2017/05/24 03:30 LEPP 240330Z 00000KT CAVOK 11/10 Q1022
 
LERS - Reus
Actualización: 24/05/2017 05:30
Despejado
Despejado
 Viento del NNE
Viento: NNE 6 km/h
Temperatura: 17°C
Rocío: 12°C
Humedad: 73%
Barómetro: 1020 hPa
Resumen: Despejado
Visibilidad: greater than 10 km
2017/05/24 03:30 LERS 240330Z AUTO 02003KT 350V050 CAVOK 17/12 Q1020
LERT - Rota
Actualización: 24/05/2017 05:00
Despejado
Despejado
 Viento del E
Viento: E 20 km/h
Temperatura: 22°C
Rocío: 3°C
Humedad: 29%
Barómetro: 1014 hPa
Resumen: Despejado
Visibilidad: greater than 10 km
2017/05/24 03:00 LERT 240300Z 09011KT CAVOK 22/03 Q1014 NOSIG
LELL - Sabadell
Actualización: 24/05/2017 05:30
Despejado
Despejado
 Viento del ONO
Viento: ONO 2 km/h
Temperatura: 16°C
Rocío: 13°C
Humedad: 83%
Barómetro: 1020 hPa
Nubosidad: Despejado
Visibilidad: 10 km
2017/05/24 03:30 LELL 240330Z AUTO 30001KT 9999 NCD 16/13 Q1020
 
LESA - Salamanca
Actualización: 23/05/2017 22:30
NO Actualizado
Despejado
Despejado
 Viento del ENE
Viento: ENE 22 km/h
Temperatura: 24°C
Rocío: 6°C
Humedad: 31%
Barómetro: 1019 hPa
Resumen: Despejado
Visibilidad: greater than 10 km
2017/05/23 20:30 LESA 232030Z 07012KT CAVOK 24/06 Q1019
LESO - San Sebastián
Actualización: 24/05/2017 05:30
Despejado
Despejado
 Viento del calm
Viento: Calma
Temperatura: 14°C
Rocío: 13°C
Humedad: 94%
Barómetro: 1022 hPa
Resumen: Despejado
Visibilidad: greater than 10 km
2017/05/24 03:30 LESO 240330Z 00000KT CAVOK 14/13 Q1022
LEXJ - Santander
Actualización: 24/05/2017 05:30
Cubierto
Cubierto
 Viento del ESE
Viento: ESE 15 km/h
Temperatura: 15°C
Rocío: 13°C
Humedad: 88%
Barómetro: 1021 hPa
Nubosidad: Cubierto
Visibilidad: 10 km
Cloud details: Cubierto 335 m
2017/05/24 03:30 LEXJ 240330Z 12008KT 070V150 9999 OVC011 15/13 Q1021
 
LEPA - Palma de Mallorca
Actualización: 24/05/2017 05:30
Despejado
Despejado
 Viento del ENE
Viento: ENE 2 km/h
Temperatura: 13°C
Rocío: 11°C
Humedad: 88%
Barómetro: 1020 hPa
Resumen: Despejado
Visibilidad: greater than 10 km
2017/05/24 03:30 LEPA 240330Z 06001KT CAVOK 13/11 Q1020 NOSIG
LEPP - Pamplona
Actualización: 24/05/2017 05:30
Despejado
Despejado
 Viento del calm
Viento: Calma
Temperatura: 11°C
Rocío: 10°C
Humedad: 94%
Barómetro: 1022 hPa
Resumen: Despejado
Visibilidad: greater than 10 km
2017/05/24 03:30 LEPP 240330Z 00000KT CAVOK 11/10 Q1022
LEST - Santiago de Compostela
Actualización: 24/05/2017 05:30
Despejado
Despejado
 Viento del ESE
Viento: ESE 15 km/h
Temperatura: 17°C
Rocío: 12°C
Humedad: 73%
Barómetro: 1017 hPa
Resumen: Despejado
Visibilidad: greater than 10 km
2017/05/24 03:30 LEST 240330Z 11008KT CAVOK 17/12 Q1017 NOSIG
 
LEZL - Sevilla
Actualización: 24/05/2017 05:30
Despejado
Despejado
 Viento del NE
Viento: NE 9 km/h
Temperatura: 20°C
Rocío: 14°C
Humedad: 69%
Barómetro: 1015 hPa
Resumen: Despejado
Visibilidad: greater than 10 km
2017/05/24 03:30 LEZL 240330Z 05005KT CAVOK 20/14 Q1015 NOSIG
GCXO - Tenerife
Actualización: 24/05/2017 05:30
Cubierto
Cubierto
 Viento del NO
Viento: NO 26 km/h
Temperatura: 15°C
Rocío: 11°C
Humedad: 77%
Barómetro: 1018 hPa
Nubosidad: Cubierto
Visibilidad: 10 km
Cloud details: Cubierto 457 m
2017/05/24 03:30 GCXO 240330Z AUTO 31014KT 9999 OVC015/// 15/11 Q1018
GCTS - Tenerife-Sur
Actualización: 24/05/2017 05:30
Partly Cloudy
Partly Cloudy
 Viento del ENE
Viento: ENE 7 km/h
Temperatura: 20°C
Rocío: 12°C
Humedad: 60%
Barómetro: 1017 hPa
Nubosidad: Partly Cloudy
Visibilidad: 10 km
Cloud details: Partly Cloudy 1280 m
2017/05/24 03:30 GCTS 240330Z 07004KT 030V090 9999 SCT042 20/12 Q1017 NOSIG
 
LEVC - Valencia
Actualización: 24/05/2017 05:30
Despejado
Despejado
 Viento del varies
Viento: varies 2 km/h
Temperatura: 16°C
Rocío: 13°C
Humedad: 83%
Barómetro: 1020 hPa
Resumen: Despejado
Visibilidad: greater than 10 km
2017/05/24 03:30 LEVC 240330Z VRB01KT CAVOK 16/13 Q1020 NOSIG
LEVD - Valladolid
Actualización: 23/05/2017 21:30
NO Actualizado
Despejado
Despejado
 Viento del NE
Viento: NE 20 km/h
Temperatura: 22°C
Rocío: 6°C
Humedad: 36%
Barómetro: 1020 hPa
Resumen: Despejado
Visibilidad: greater than 10 km
2017/05/23 19:30 LEVD 231930Z 05011KT CAVOK 22/06 Q1020
LEVX - Vigo
Actualización: 24/05/2017 05:30
Despejado
Despejado
 Viento del OSO
Viento: OSO 9 km/h
Temperatura: 21°C
Rocío: 16°C
Humedad: 73%
Barómetro: 1016 hPa
Resumen: Despejado
Visibilidad: greater than 10 km
2017/05/24 03:30 LEVX 240330Z 24005KT 210V280 CAVOK 21/16 Q1016 NOSIG
 
LEVT - Vitoria
Actualización: 24/05/2017 05:30
Cubierto
Cubierto
 Viento del varies
Viento: varies 4 km/h
Temperatura: 11°C
Rocío: 11°C
Humedad: 100%
Barómetro: 1022 hPa
Nubosidad: Cubierto
Visibilidad: 6 km
Cloud details: Cubierto 91 m
2017/05/24 03:30 LEVT 240330Z VRB02KT 6000 OVC003 11/11 Q1022
LEZG - Zaragoza
Actualización: 24/05/2017 05:30
Despejado
Despejado
 Viento del O
Viento: O 11 km/h
Temperatura: 17°C
Rocío: 12°C
Humedad: 73%
Barómetro: 1020 hPa
Resumen: Despejado
Visibilidad: greater than 10 km
2017/05/24 03:30 LEZG 240330Z 26006KT CAVOK 17/12 Q1020

La estación de MeteoMurcia.com, publica sus datos en los siguientes proyectos:

Meteoclimatic www.awekas.at

W3Counter
Web Analytics